Barrington, New Hampshire
Current Conditions -  °F | °C
As of 1:51 PM on Sunday 23 Nov 2014 (Local Time) from KDAW Reporting Station
Clear Clear  
Wind Chill: 57°   Ceiling: Unl
Heat Index: 57°   Visibility: 10mi
Dew Point: 40°   Wind: 5mph
Humidity: 53%   Direction: NA
Pressure: 30.06"   Gusts: NA
Location:  43.22°N, 71.05°W
Report Text: KDAW 231851Z AUTO VRB04KT 10SM CLR 14/04 A3006 RMK AO2 SLP179 T01390044
Loading
Personal Weather Stations






























Interactive Weather Map New forecast layout! Learn more

10-Day Weather Forecast

Advertisements
Track Severe Weather on mobile